createdAt,value
2022-12-18T00:01:23.688Z,26.30
2022-12-18T00:03:52.196Z,31.90
2022-12-18T00:06:20.381Z,29.30
2022-12-18T00:08:47.678Z,25.70
2022-12-18T00:11:17.111Z,31.00
2022-12-18T00:13:44.655Z,28.60
2022-12-18T00:16:15.314Z,30.10
2022-12-18T00:18:42.808Z,27.70
2022-12-18T00:21:12.348Z,34.20
2022-12-18T00:23:41.711Z,32.40
2022-12-18T00:26:12.916Z,29.90
2022-12-18T00:28:39.638Z,34.00
2022-12-18T00:31:11.110Z,36.70
2022-12-18T00:33:39.036Z,30.30
2022-12-18T00:36:09.970Z,28.70
2022-12-18T00:38:37.942Z,31.60
2022-12-18T00:41:05.760Z,36.90
2022-12-18T00:43:37.157Z,32.30
2022-12-18T00:46:04.620Z,31.90
2022-12-18T00:48:32.818Z,30.40
2022-12-18T00:50:59.510Z,31.20
2022-12-18T00:53:26.280Z,30.30
2022-12-18T00:55:53.050Z,30.20
2022-12-18T00:58:19.731Z,32.60
2022-12-18T01:00:46.526Z,33.50
2022-12-18T01:03:14.688Z,30.50
2022-12-18T01:05:42.898Z,37.50
2022-12-18T01:08:10.007Z,37.50
2022-12-18T01:10:36.942Z,37.00
2022-12-18T01:13:03.734Z,39.50
2022-12-18T01:15:30.404Z,41.20
2022-12-18T01:17:57.285Z,42.00
2022-12-18T01:20:24.081Z,32.30
2022-12-18T01:22:50.789Z,34.80
2022-12-18T01:25:17.814Z,37.30
2022-12-18T01:27:44.612Z,32.90
2022-12-18T01:30:11.690Z,32.00
2022-12-18T01:32:38.554Z,32.30
2022-12-18T01:35:06.299Z,32.50
2022-12-18T01:37:33.077Z,35.30
2022-12-18T01:39:59.856Z,32.80
2022-12-18T01:42:26.642Z,35.50
2022-12-18T01:45:00.085Z,30.50
2022-12-18T01:47:26.874Z,36.10
2022-12-18T01:49:55.009Z,35.60
2022-12-18T01:52:25.886Z,36.10
2022-12-18T01:54:53.541Z,34.10
2022-12-18T01:57:22.480Z,32.40
2022-12-18T01:59:53.494Z,29.90
2022-12-18T02:02:21.683Z,29.70
2022-12-18T02:04:49.707Z,31.30
2022-12-18T02:07:46.296Z,35.70
2022-12-18T02:10:25.188Z,31.40
2022-12-18T02:13:07.601Z,35.60
2022-12-18T02:15:41.845Z,29.40
2022-12-18T02:18:14.951Z,31.50
2022-12-18T02:20:49.645Z,32.20
2022-12-18T02:23:48.240Z,30.30
2022-12-18T02:26:29.152Z,33.50
2022-12-18T02:29:02.767Z,28.40
2022-12-18T02:31:37.166Z,35.40
2022-12-18T02:34:07.237Z,32.20
2022-12-18T02:36:36.693Z,31.90
2022-12-18T02:39:06.854Z,28.70
2022-12-18T02:41:36.625Z,32.90
2022-12-18T02:44:09.362Z,28.60
2022-12-18T02:46:41.046Z,32.40
2022-12-18T02:49:22.235Z,34.30
2022-12-18T02:52:10.690Z,31.60
2022-12-18T02:55:02.476Z,31.90
2022-12-18T02:57:53.837Z,29.00
2022-12-18T03:00:32.070Z,17.20
2022-12-18T03:03:14.878Z,28.20
2022-12-18T03:05:47.311Z,28.00
2022-12-18T03:08:27.869Z,27.30
2022-12-18T03:11:07.259Z,29.00
2022-12-18T03:13:39.849Z,28.40
2022-12-18T03:16:11.625Z,29.20
2022-12-18T03:18:48.711Z,30.90
2022-12-18T03:21:28.909Z,32.90
2022-12-18T03:23:57.339Z,27.40
2022-12-18T03:26:28.365Z,30.00
2022-12-18T03:29:05.373Z,24.00
2022-12-18T03:31:33.401Z,28.70
2022-12-18T03:34:04.594Z,27.50
2022-12-18T03:36:32.125Z,28.80
2022-12-18T03:38:59.358Z,26.70
2022-12-18T03:41:39.952Z,27.50
2022-12-18T03:44:20.177Z,29.50
2022-12-18T03:46:53.123Z,25.80
2022-12-18T03:49:30.637Z,23.60
2022-12-18T03:52:05.430Z,28.50
2022-12-18T03:54:34.401Z,30.40
2022-12-18T03:57:23.088Z,30.60
2022-12-18T03:59:55.029Z,32.50
2022-12-18T04:02:24.095Z,27.40
2022-12-18T04:04:54.058Z,26.70
2022-12-18T04:07:21.736Z,23.80
2022-12-18T04:09:51.021Z,23.30
2022-12-18T04:12:17.775Z,21.20
2022-12-18T04:14:45.327Z,22.20
2022-12-18T04:17:12.783Z,29.40
2022-12-18T04:19:39.887Z,25.90
2022-12-18T04:22:10.819Z,26.90
2022-12-18T04:24:37.818Z,29.40
2022-12-18T04:27:05.121Z,28.00
2022-12-18T04:29:33.142Z,27.40
2022-12-18T04:31:59.954Z,30.80
2022-12-18T04:34:26.997Z,23.30
2022-12-18T04:36:53.751Z,21.80
2022-12-18T04:39:20.498Z,31.60
2022-12-18T04:41:47.291Z,31.20
2022-12-18T04:44:14.193Z,31.60
2022-12-18T04:46:41.014Z,28.80
2022-12-18T04:49:08.256Z,28.90
2022-12-18T04:51:34.931Z,32.00
2022-12-18T04:54:01.802Z,30.60
2022-12-18T04:56:28.538Z,30.90
2022-12-18T04:58:55.207Z,30.40
2022-12-18T05:01:22.063Z,32.40
2022-12-18T05:03:49.021Z,31.30
2022-12-18T05:06:15.725Z,29.10
2022-12-18T05:08:42.593Z,27.70
2022-12-18T05:11:12.661Z,30.30
2022-12-18T05:16:08.746Z,33.30
2022-12-18T05:18:36.438Z,28.10
2022-12-18T05:21:03.847Z,30.90
2022-12-18T05:23:30.825Z,28.30
2022-12-18T05:26:00.006Z,33.20
2022-12-18T05:28:29.330Z,31.40
2022-12-18T05:30:59.246Z,26.40
2022-12-18T05:35:59.157Z,25.00
2022-12-18T05:38:27.540Z,29.90
2022-12-18T05:40:54.844Z,30.10
2022-12-18T05:43:22.769Z,32.00
2022-12-18T05:45:50.525Z,25.90
2022-12-18T05:48:17.594Z,31.00
2022-12-18T05:50:46.670Z,28.70
2022-12-18T05:53:15.398Z,25.00
2022-12-18T05:55:43.856Z,35.30
2022-12-18T05:58:12.624Z,35.80
2022-12-18T06:00:41.986Z,31.70
2022-12-18T06:03:10.628Z,35.90
2022-12-18T06:05:40.407Z,41.60
2022-12-18T06:08:07.261Z,38.80
2022-12-18T06:10:34.069Z,43.00
2022-12-18T06:13:01.533Z,45.40
2022-12-18T06:15:28.554Z,43.30
2022-12-18T06:17:55.268Z,37.80
2022-12-18T06:20:22.095Z,40.30
2022-12-18T06:22:48.932Z,34.10
2022-12-18T06:25:16.434Z,38.00
2022-12-18T06:27:43.341Z,40.00
2022-12-18T06:30:11.993Z,37.00
2022-12-18T06:32:39.347Z,39.70
2022-12-18T06:35:07.090Z,34.30
2022-12-18T06:37:33.854Z,37.60
2022-12-18T06:40:01.465Z,35.80
2022-12-18T06:42:29.250Z,33.30
2022-12-18T06:44:56.037Z,41.20
2022-12-18T06:47:22.766Z,42.20
2022-12-18T06:49:49.545Z,34.60
2022-12-18T06:52:17.084Z,34.30
2022-12-18T06:54:43.824Z,37.50
2022-12-18T06:57:10.680Z,40.60
2022-12-18T06:59:37.462Z,44.20
2022-12-18T07:02:05.059Z,37.90
2022-12-18T07:04:32.527Z,39.60
2022-12-18T07:06:59.316Z,40.90
2022-12-18T07:09:26.203Z,33.60
2022-12-18T07:11:53.716Z,40.20
2022-12-18T07:14:20.536Z,41.60
2022-12-18T07:16:48.147Z,39.30
2022-12-18T07:19:15.367Z,46.90
2022-12-18T07:21:42.317Z,36.00
2022-12-18T07:24:09.061Z,42.40
2022-12-18T07:26:35.793Z,35.60
2022-12-18T07:29:02.618Z,38.80
2022-12-18T07:31:29.360Z,39.70
2022-12-18T07:33:56.421Z,33.80
2022-12-18T07:36:23.298Z,31.60
2022-12-18T07:38:52.357Z,32.90
2022-12-18T07:41:19.631Z,41.40
2022-12-18T07:43:46.999Z,36.30
2022-12-18T07:46:15.316Z,34.40
2022-12-18T07:48:44.246Z,38.80
2022-12-18T07:51:13.953Z,36.30
2022-12-18T07:53:41.815Z,28.30
2022-12-18T07:56:27.043Z,48.60
2022-12-18T07:58:57.070Z,37.90
2022-12-18T08:01:24.518Z,35.50
2022-12-18T08:03:52.104Z,32.30
2022-12-18T08:06:19.347Z,36.80
2022-12-18T08:08:50.712Z,33.00
2022-12-18T08:11:17.494Z,31.60
2022-12-18T08:13:44.292Z,34.80
2022-12-18T08:16:11.235Z,35.10
2022-12-18T08:18:38.263Z,32.90
2022-12-18T08:21:12.830Z,31.50
2022-12-18T08:23:43.079Z,36.40
2022-12-18T08:26:12.477Z,38.40
2022-12-18T08:28:39.761Z,42.70
2022-12-18T08:31:08.247Z,39.00
2022-12-18T08:33:36.850Z,35.00
2022-12-18T08:36:05.185Z,32.70
2022-12-18T08:38:33.482Z,30.20
2022-12-18T08:41:05.616Z,35.80
2022-12-18T08:43:50.908Z,33.50
2022-12-18T08:48:45.805Z,37.90
2022-12-18T08:51:13.946Z,36.80
2022-12-18T08:53:41.193Z,35.60
2022-12-18T08:56:08.421Z,35.50
2022-12-18T08:58:35.192Z,31.60
2022-12-18T09:01:06.087Z,31.40
2022-12-18T09:03:34.658Z,31.00
2022-12-18T09:06:01.928Z,41.60
2022-12-18T09:08:29.651Z,40.30
2022-12-18T09:10:56.415Z,42.70
2022-12-18T09:13:23.598Z,36.10
2022-12-18T09:15:54.872Z,40.20
2022-12-18T09:18:23.791Z,35.10
2022-12-18T09:20:52.830Z,36.90
2022-12-18T09:23:20.180Z,40.30
2022-12-18T09:25:47.050Z,34.60
2022-12-18T09:28:16.125Z,35.40
2022-12-18T09:30:48.433Z,40.70
2022-12-18T09:33:16.516Z,39.30
2022-12-18T09:35:47.252Z,40.70
2022-12-18T09:38:19.967Z,36.70
2022-12-18T09:40:59.227Z,35.00
2022-12-18T09:43:50.681Z,35.00
2022-12-18T09:46:40.979Z,39.20
2022-12-18T09:49:15.256Z,31.90
2022-12-18T09:51:51.391Z,36.90
2022-12-18T09:54:40.097Z,39.40
2022-12-18T09:57:11.278Z,81.90
2022-12-18T09:59:42.417Z,48.20
2022-12-18T10:02:25.870Z,49.90
2022-12-18T10:05:15.602Z,37.30
2022-12-18T10:08:21.639Z,30.50
2022-12-18T10:10:55.498Z,32.20
2022-12-18T10:13:40.139Z,43.70
2022-12-18T10:16:54.597Z,34.90
2022-12-18T10:19:30.546Z,36.40
2022-12-18T10:22:16.003Z,35.70
2022-12-18T10:24:47.790Z,34.00
2022-12-18T10:27:18.188Z,32.80
2022-12-18T10:29:46.630Z,30.90
2022-12-18T10:32:23.030Z,31.90
2022-12-18T10:34:56.699Z,31.70
2022-12-18T10:37:29.272Z,37.90
2022-12-18T10:40:25.500Z,35.80
2022-12-18T10:43:12.617Z,35.80
2022-12-18T10:45:40.208Z,32.60
2022-12-18T10:48:22.909Z,34.00
2022-12-18T10:53:42.005Z,35.40
2022-12-18T10:56:11.793Z,35.10
2022-12-18T10:58:40.949Z,39.70
2022-12-18T11:01:14.940Z,41.20
2022-12-18T11:03:45.554Z,34.90
2022-12-18T11:06:19.065Z,31.40
2022-12-18T11:09:01.132Z,34.20
2022-12-18T11:11:29.676Z,36.00
2022-12-18T11:14:02.664Z,31.00
2022-12-18T11:16:34.363Z,33.70
2022-12-18T11:19:21.656Z,33.00
2022-12-18T11:21:49.715Z,28.80
2022-12-18T11:24:38.448Z,28.80
2022-12-18T11:27:16.220Z,33.80
2022-12-18T11:29:46.620Z,32.00
2022-12-18T11:32:39.909Z,29.90
2022-12-18T11:35:20.199Z,31.80
2022-12-18T11:37:58.129Z,29.50
2022-12-18T11:40:40.848Z,32.20
2022-12-18T11:43:42.831Z,28.90
2022-12-18T11:47:10.543Z,30.80
2022-12-18T11:49:42.052Z,29.30
2022-12-18T11:54:52.646Z,24.20
2022-12-18T11:57:40.265Z,24.50
2022-12-18T12:00:56.112Z,25.70
2022-12-18T12:03:47.171Z,25.00
2022-12-18T12:06:15.134Z,27.10
2022-12-18T12:09:12.824Z,25.30
2022-12-18T12:11:55.088Z,22.50
2022-12-18T12:14:28.003Z,21.60
2022-12-18T12:17:28.220Z,22.20
2022-12-18T12:19:59.704Z,26.00
2022-12-18T12:22:58.788Z,19.90
2022-12-18T12:25:41.310Z,22.70
2022-12-18T12:28:47.338Z,22.40
2022-12-18T12:31:33.272Z,24.00
2022-12-18T12:34:07.862Z,21.40
2022-12-18T12:36:46.209Z,20.80
2022-12-18T12:39:24.066Z,24.50
2022-12-18T12:42:10.143Z,27.40
2022-12-18T12:44:55.665Z,24.00
2022-12-18T12:47:40.057Z,23.30
2022-12-18T12:50:18.897Z,26.50
2022-12-18T12:52:50.342Z,31.10
2022-12-18T12:55:29.235Z,32.40
2022-12-18T12:58:58.042Z,31.00
2022-12-18T13:01:31.371Z,51.00
2022-12-18T13:04:13.695Z,38.10
2022-12-18T13:06:50.871Z,30.70
2022-12-18T13:09:17.896Z,29.50
2022-12-18T13:12:06.216Z,26.90
2022-12-18T13:14:38.439Z,26.20
2022-12-18T13:17:29.729Z,25.50
2022-12-18T13:20:08.932Z,22.90
2022-12-18T13:22:39.869Z,26.40
2022-12-18T13:25:42.241Z,23.40
2022-12-18T13:28:16.690Z,21.80
2022-12-18T13:30:47.831Z,20.40
2022-12-18T13:33:18.591Z,30.80
2022-12-18T13:35:48.241Z,27.20
2022-12-18T13:38:37.120Z,29.90
2022-12-18T13:41:22.614Z,30.00
2022-12-18T13:43:53.112Z,33.70
2022-12-18T13:46:30.636Z,33.50
2022-12-18T13:49:03.423Z,42.00
2022-12-18T13:51:33.403Z,36.90
2022-12-18T13:56:46.157Z,31.10
2022-12-18T13:59:26.735Z,30.60
2022-12-18T14:01:59.973Z,32.60
2022-12-18T14:04:35.115Z,29.50
2022-12-18T14:07:04.705Z,39.80
2022-12-18T14:09:36.721Z,36.20
2022-12-18T14:12:24.460Z,34.80
2022-12-18T14:14:55.160Z,30.00
2022-12-18T14:17:23.452Z,32.40
2022-12-18T14:19:51.984Z,33.80
2022-12-18T14:22:22.583Z,34.10
2022-12-18T14:25:25.768Z,33.50
2022-12-18T14:27:55.285Z,33.30
2022-12-18T14:30:45.475Z,45.40
2022-12-18T14:33:22.005Z,40.30
2022-12-18T14:36:06.054Z,33.90
2022-12-18T14:38:40.510Z,31.30
2022-12-18T14:41:16.234Z,32.00
2022-12-18T14:43:45.395Z,32.50
2022-12-18T14:46:33.962Z,32.00
2022-12-18T14:49:33.956Z,32.80
2022-12-18T14:52:06.796Z,25.60
2022-12-18T14:54:37.751Z,30.20
2022-12-18T14:57:26.980Z,33.10
2022-12-18T14:59:53.972Z,24.80
2022-12-18T15:02:27.245Z,32.10
2022-12-18T15:05:13.536Z,28.70
2022-12-18T15:07:51.423Z,24.20
2022-12-18T15:10:21.527Z,26.50
2022-12-18T15:15:42.955Z,25.40
2022-12-18T15:18:12.859Z,27.50
2022-12-18T15:20:59.599Z,20.60
2022-12-18T15:23:26.354Z,22.60
2022-12-18T15:26:02.900Z,25.80
2022-12-18T15:28:39.109Z,20.50
2022-12-18T15:31:11.863Z,24.70
2022-12-18T15:33:45.161Z,19.90
2022-12-18T15:36:24.010Z,34.20
2022-12-18T15:38:56.048Z,28.70
2022-12-18T15:42:09.949Z,26.60
2022-12-18T15:44:37.793Z,25.60
2022-12-18T15:47:11.841Z,22.10
2022-12-18T15:49:38.833Z,29.80
2022-12-18T15:52:06.135Z,30.60
2022-12-18T15:54:53.858Z,26.70
2022-12-18T15:57:23.186Z,27.20
2022-12-18T15:59:53.147Z,34.40
2022-12-18T16:02:22.943Z,29.20
2022-12-18T16:07:22.922Z,29.10
2022-12-18T16:09:52.925Z,31.00
2022-12-18T16:12:25.461Z,34.50
2022-12-18T16:14:52.866Z,35.70
2022-12-18T16:17:20.440Z,31.30
2022-12-18T16:19:47.241Z,31.10
2022-12-18T16:22:25.746Z,29.40
2022-12-18T16:24:54.955Z,37.30
2022-12-18T16:27:23.588Z,37.70
2022-12-18T16:29:51.045Z,38.50
2022-12-18T16:32:20.731Z,45.00
2022-12-18T16:34:47.892Z,32.90
2022-12-18T16:37:15.769Z,42.30
2022-12-18T16:39:43.208Z,37.30
2022-12-18T16:42:17.503Z,32.20
2022-12-18T16:44:46.782Z,44.90
2022-12-18T16:47:15.209Z,41.50
2022-12-18T16:49:45.337Z,31.50
2022-12-18T16:52:13.115Z,30.20
2022-12-18T16:54:40.205Z,28.30
2022-12-18T16:57:08.624Z,24.30
2022-12-18T16:59:35.528Z,32.00
2022-12-18T17:02:06.336Z,28.50
2022-12-18T17:04:33.713Z,30.60
2022-12-18T17:07:01.010Z,33.50
2022-12-18T17:09:27.855Z,32.20
2022-12-18T17:11:55.357Z,29.60
2022-12-18T17:14:24.243Z,29.00
2022-12-18T17:17:19.848Z,30.00
2022-12-18T17:19:43.401Z,34.50
2022-12-18T17:22:10.215Z,33.20
2022-12-18T17:24:37.006Z,32.00
2022-12-18T17:27:04.569Z,27.60
2022-12-18T17:29:32.763Z,31.00
2022-12-18T17:32:00.509Z,27.90
2022-12-18T17:34:28.255Z,28.50
2022-12-18T17:36:55.826Z,31.50
2022-12-18T17:39:22.898Z,33.00
2022-12-18T17:41:50.005Z,33.40
2022-12-18T17:44:18.185Z,31.20
2022-12-18T17:46:46.187Z,31.30
2022-12-18T17:49:14.303Z,31.10
2022-12-18T17:51:52.642Z,26.90
2022-12-18T17:54:41.093Z,28.50
2022-12-18T17:57:11.048Z,32.30
2022-12-18T17:59:38.072Z,27.40
2022-12-18T18:02:06.962Z,28.10
2022-12-18T18:04:34.082Z,30.70
2022-12-18T18:07:02.064Z,31.60
2022-12-18T18:09:29.207Z,29.40
2022-12-18T18:12:15.014Z,33.30
2022-12-18T18:14:41.930Z,42.10
2022-12-18T18:17:08.869Z,50.30
2022-12-18T18:19:35.726Z,38.40
2022-12-18T18:22:03.130Z,40.60
2022-12-18T18:24:33.013Z,31.80
2022-12-18T18:26:59.829Z,30.90
2022-12-18T18:29:29.803Z,33.30
2022-12-18T18:34:26.273Z,30.40
2022-12-18T18:36:53.755Z,34.80
2022-12-18T18:39:21.081Z,29.00
2022-12-18T18:41:48.759Z,29.50
2022-12-18T18:44:17.268Z,32.80
2022-12-18T18:46:53.940Z,30.30
2022-12-18T18:49:23.687Z,30.80
2022-12-18T18:51:51.690Z,28.10
2022-12-18T18:54:20.806Z,34.10
2022-12-18T18:59:37.945Z,32.20
2022-12-18T19:02:05.342Z,32.50
2022-12-18T19:09:32.133Z,27.90
2022-12-18T19:12:19.694Z,32.60
2022-12-18T19:14:46.843Z,30.00
2022-12-18T19:17:13.636Z,29.80
2022-12-18T19:19:40.676Z,31.10
2022-12-18T19:22:08.925Z,26.70
2022-12-18T19:24:36.218Z,31.60
2022-12-18T19:27:03.422Z,28.10
2022-12-18T19:29:30.404Z,29.60
2022-12-18T19:31:57.204Z,30.50
2022-12-18T19:34:24.053Z,30.80
2022-12-18T19:36:55.274Z,29.90
2022-12-18T19:39:26.266Z,27.50
2022-12-18T19:41:53.086Z,31.30
2022-12-18T19:44:21.065Z,27.60
2022-12-18T19:46:51.591Z,31.20
2022-12-18T19:49:18.563Z,32.70
2022-12-18T19:51:45.756Z,29.30
2022-12-18T19:54:16.692Z,29.40
2022-12-18T19:56:45.290Z,29.20
2022-12-18T19:59:13.497Z,31.10
2022-12-18T20:01:40.866Z,31.90
2022-12-18T20:04:07.918Z,32.10
2022-12-18T20:06:53.384Z,32.20
2022-12-18T20:09:20.972Z,30.70
2022-12-18T20:11:48.952Z,29.00
2022-12-18T20:14:16.897Z,34.20
2022-12-18T20:16:51.744Z,34.50
2022-12-18T20:19:18.734Z,33.30
2022-12-18T20:21:45.814Z,32.20
2022-12-18T20:24:12.707Z,31.10
2022-12-18T20:26:40.147Z,30.30
2022-12-18T20:29:07.041Z,33.40
2022-12-18T20:31:34.005Z,34.50
2022-12-18T20:34:02.647Z,31.70
2022-12-18T20:36:31.863Z,37.30
2022-12-18T20:39:03.857Z,34.00
2022-12-18T20:41:33.523Z,32.80
2022-12-18T20:44:09.847Z,36.50
2022-12-18T20:46:56.172Z,37.00
2022-12-18T20:49:25.329Z,32.90
2022-12-18T20:51:55.602Z,31.00
2022-12-18T20:54:24.379Z,33.30
2022-12-18T20:56:51.519Z,35.70
2022-12-18T20:59:19.544Z,33.30
2022-12-18T21:01:48.863Z,31.40
2022-12-18T21:06:51.312Z,37.60
2022-12-18T21:09:21.149Z,32.90
2022-12-18T21:12:07.744Z,34.30
2022-12-18T21:14:39.867Z,27.70
2022-12-18T21:17:06.920Z,31.70
2022-12-18T21:19:36.918Z,37.10
2022-12-18T21:22:04.451Z,39.60
2022-12-18T21:24:32.672Z,43.40
2022-12-18T21:26:59.903Z,44.20
2022-12-18T21:29:27.216Z,40.90
2022-12-18T21:31:54.471Z,43.10
2022-12-18T21:34:28.622Z,39.10
2022-12-18T21:36:58.654Z,44.10
2022-12-18T21:39:28.642Z,37.80
2022-12-18T21:42:15.849Z,41.20
2022-12-18T21:44:44.180Z,40.60
2022-12-18T21:47:20.862Z,43.10
2022-12-18T21:49:52.146Z,46.00
2022-12-18T21:52:21.563Z,42.80
2022-12-18T21:54:50.841Z,39.80
2022-12-18T21:57:18.229Z,39.10
2022-12-18T21:59:45.164Z,42.70
2022-12-18T22:02:15.906Z,38.80
2022-12-18T22:04:45.423Z,40.80
2022-12-18T22:07:14.555Z,39.90
2022-12-18T22:09:42.475Z,43.90
2022-12-18T22:12:11.996Z,48.50
2022-12-18T22:14:38.760Z,41.30
2022-12-18T22:17:05.804Z,45.60
2022-12-18T22:19:38.118Z,44.60
2022-12-18T22:22:09.682Z,39.10
2022-12-18T22:24:36.515Z,38.60
2022-12-18T22:27:03.269Z,45.40
2022-12-18T22:29:48.690Z,45.30
2022-12-18T22:32:16.606Z,42.20
2022-12-18T22:34:44.840Z,45.20
2022-12-18T22:37:12.102Z,43.40
2022-12-18T22:39:39.558Z,40.40
2022-12-18T22:42:07.114Z,41.60
2022-12-18T22:44:33.942Z,43.50
2022-12-18T22:47:06.455Z,47.30
2022-12-18T22:49:34.846Z,44.40
2022-12-18T22:52:03.615Z,41.80
2022-12-18T22:54:30.443Z,41.80
2022-12-18T22:56:57.534Z,39.50
2022-12-18T22:59:24.449Z,41.70
2022-12-18T23:01:58.451Z,44.00
2022-12-18T23:04:36.207Z,40.30
2022-12-18T23:07:05.671Z,41.40
2022-12-18T23:09:33.018Z,42.30
2022-12-18T23:12:00.279Z,43.30
2022-12-18T23:14:28.128Z,44.20
2022-12-18T23:16:56.033Z,40.40
2022-12-18T23:19:24.129Z,38.50
2022-12-18T23:21:51.544Z,41.80
2022-12-18T23:24:18.373Z,39.20
2022-12-18T23:26:46.517Z,41.80
2022-12-18T23:29:13.219Z,37.00
2022-12-18T23:31:40.213Z,41.30
2022-12-18T23:34:07.557Z,47.10
2022-12-18T23:36:45.715Z,44.70
2022-12-18T23:39:29.065Z,43.20
2022-12-18T23:41:58.113Z,51.80
2022-12-18T23:44:25.250Z,49.20
2022-12-18T23:46:52.204Z,42.20
2022-12-18T23:49:18.989Z,43.60
2022-12-18T23:51:45.817Z,41.80
2022-12-18T23:54:12.513Z,43.10
2022-12-18T23:56:39.249Z,41.40
2022-12-18T23:59:06.280Z,44.90
